createdAt,value
2023-02-02T00:02:18.852Z,16.07
2023-02-02T00:04:46.352Z,11.57
2023-02-02T00:07:13.798Z,10.27
2023-02-02T00:09:41.226Z,12.10
2023-02-02T00:12:08.667Z,11.70
2023-02-02T00:14:36.152Z,13.10
2023-02-02T00:17:05.135Z,12.97
2023-02-02T00:19:33.804Z,13.53
2023-02-02T00:22:01.234Z,13.60
2023-02-02T00:24:28.709Z,13.57
2023-02-02T00:26:57.330Z,14.33
2023-02-02T00:29:25.630Z,9.50
2023-02-02T00:31:53.365Z,10.30
2023-02-02T00:34:22.468Z,12.10
2023-02-02T00:36:50.632Z,11.40
2023-02-02T00:39:19.401Z,14.43
2023-02-02T00:41:47.063Z,14.57
2023-02-02T00:44:32.292Z,14.43
2023-02-02T00:46:59.793Z,10.50
2023-02-02T00:49:28.585Z,16.80
2023-02-02T00:51:56.036Z,12.70
2023-02-02T00:54:23.436Z,12.20
2023-02-02T00:56:50.838Z,11.80
2023-02-02T00:59:18.411Z,17.80
2023-02-02T01:01:45.906Z,14.30
2023-02-02T01:04:13.395Z,13.00
2023-02-02T01:06:42.231Z,9.90
2023-02-02T01:09:09.776Z,13.80
2023-02-02T01:11:37.189Z,11.70
2023-02-02T01:14:04.654Z,20.90
2023-02-02T01:16:32.140Z,9.30
2023-02-02T01:18:59.570Z,10.50
2023-02-02T01:21:27.085Z,10.70
2023-02-02T01:23:55.804Z,13.57
2023-02-02T01:26:23.275Z,11.13
2023-02-02T01:28:51.094Z,15.07
2023-02-02T01:31:19.257Z,17.00
2023-02-02T01:33:47.525Z,20.57
2023-02-02T01:36:15.751Z,15.53
2023-02-02T01:38:43.200Z,16.60
2023-02-02T01:41:13.463Z,10.80
2023-02-02T01:43:57.727Z,10.40
2023-02-02T01:46:26.325Z,14.60
2023-02-02T01:48:56.811Z,13.93
2023-02-02T01:51:26.644Z,10.00
2023-02-02T01:53:56.035Z,12.13
2023-02-02T01:56:27.920Z,18.70
2023-02-02T01:58:55.358Z,16.13
2023-02-02T02:01:22.924Z,13.67
2023-02-02T02:03:50.427Z,17.73
2023-02-02T02:06:18.755Z,16.07
2023-02-02T02:08:48.681Z,18.57
2023-02-02T02:11:16.304Z,10.63
2023-02-02T02:13:59.017Z,16.57
2023-02-02T02:16:30.368Z,20.10
2023-02-02T02:19:09.187Z,18.07
2023-02-02T02:21:58.768Z,15.13
2023-02-02T02:24:54.371Z,20.97
2023-02-02T02:27:29.501Z,18.83
2023-02-02T02:30:20.746Z,18.50
2023-02-02T02:32:51.818Z,17.77
2023-02-02T02:35:24.627Z,16.00
2023-02-02T02:37:55.198Z,15.97
2023-02-02T02:40:25.269Z,16.80
2023-02-02T02:42:55.347Z,10.77
2023-02-02T02:45:23.353Z,17.23
2023-02-02T02:47:53.208Z,16.40
2023-02-02T02:50:20.724Z,16.40
2023-02-02T02:52:49.007Z,15.33
2023-02-02T02:55:16.657Z,17.27
2023-02-02T02:58:01.786Z,18.67
2023-02-02T03:00:34.462Z,14.30
2023-02-02T03:03:06.526Z,15.93
2023-02-02T03:05:37.895Z,21.23
2023-02-02T03:08:09.147Z,15.50
2023-02-02T03:10:37.428Z,12.40
2023-02-02T03:13:07.862Z,16.83
2023-02-02T03:15:35.242Z,11.90
2023-02-02T03:18:04.053Z,20.70
2023-02-02T03:20:31.473Z,20.17
2023-02-02T03:22:58.915Z,15.93
2023-02-02T03:25:26.679Z,19.87
2023-02-02T03:27:54.297Z,17.70
2023-02-02T03:30:23.211Z,17.47
2023-02-02T03:32:51.512Z,17.27
2023-02-02T03:35:20.785Z,18.70
2023-02-02T03:37:48.374Z,18.30
2023-02-02T03:40:16.093Z,17.43
2023-02-02T03:42:43.523Z,19.93
2023-02-02T03:45:11.571Z,18.30
2023-02-02T03:47:39.005Z,22.50
2023-02-02T03:50:07.813Z,16.17
2023-02-02T03:52:37.838Z,21.97
2023-02-02T03:55:05.720Z,18.87
2023-02-02T03:57:33.158Z,16.50
2023-02-02T04:00:00.763Z,18.63
2023-02-02T04:02:28.260Z,28.70
2023-02-02T04:04:55.676Z,17.30
2023-02-02T04:07:23.228Z,22.50
2023-02-02T04:09:52.066Z,16.47
2023-02-02T04:12:19.460Z,20.23
2023-02-02T04:14:47.431Z,17.10
2023-02-02T04:17:14.851Z,14.50
2023-02-02T04:19:42.303Z,27.03
2023-02-02T04:22:09.688Z,20.13
2023-02-02T04:24:38.142Z,22.50
2023-02-02T04:27:07.022Z,26.63
2023-02-02T04:29:34.440Z,22.80
2023-02-02T04:32:01.833Z,25.10
2023-02-02T04:34:29.254Z,24.37
2023-02-02T04:36:56.989Z,18.33
2023-02-02T04:39:24.454Z,23.60
2023-02-02T04:41:51.898Z,24.70
2023-02-02T04:44:20.698Z,18.03
2023-02-02T04:46:48.105Z,21.57
2023-02-02T04:49:15.496Z,23.40
2023-02-02T04:51:42.880Z,21.23
2023-02-02T04:54:10.295Z,17.87
2023-02-02T04:56:37.739Z,26.80
2023-02-02T04:59:05.244Z,27.63
2023-02-02T05:01:33.956Z,25.00
2023-02-02T05:04:01.334Z,20.93
2023-02-02T05:06:28.722Z,29.00
2023-02-02T05:08:56.157Z,26.90
2023-02-02T05:11:24.429Z,20.93
2023-02-02T05:13:52.884Z,25.23
2023-02-02T05:16:20.622Z,27.60
2023-02-02T05:18:51.478Z,26.63
2023-02-02T05:21:19.285Z,23.70
2023-02-02T05:23:46.679Z,22.87
2023-02-02T05:26:16.595Z,24.77
2023-02-02T05:28:44.097Z,23.03
2023-02-02T05:31:11.528Z,23.90
2023-02-02T05:33:39.009Z,18.80
2023-02-02T05:36:08.399Z,19.53
2023-02-02T05:38:36.140Z,24.83
2023-02-02T05:41:03.553Z,23.70
2023-02-02T05:43:32.111Z,20.73
2023-02-02T05:45:59.591Z,19.67
2023-02-02T05:48:27.079Z,23.60
2023-02-02T05:50:58.310Z,27.00
2023-02-02T05:53:27.107Z,21.00
2023-02-02T05:55:54.579Z,20.60
2023-02-02T05:58:22.101Z,38.10
2023-02-02T06:00:49.686Z,21.90
2023-02-02T06:03:17.366Z,23.13
2023-02-02T06:05:44.860Z,20.93
2023-02-02T06:08:12.282Z,24.60
2023-02-02T06:10:41.593Z,19.00
2023-02-02T06:13:09.223Z,26.17
2023-02-02T06:15:37.296Z,19.80
2023-02-02T06:18:06.598Z,24.13
2023-02-02T06:20:33.987Z,25.70
2023-02-02T06:23:01.458Z,25.50
2023-02-02T06:25:29.185Z,30.00
2023-02-02T06:27:58.391Z,25.70
2023-02-02T06:30:26.099Z,36.20
2023-02-02T06:32:53.560Z,24.47
2023-02-02T06:35:21.145Z,24.37
2023-02-02T06:37:49.183Z,27.37
2023-02-02T06:40:16.752Z,28.40
2023-02-02T06:42:44.252Z,19.83
2023-02-02T06:45:13.444Z,21.43
2023-02-02T06:47:41.035Z,18.90
2023-02-02T06:50:09.361Z,20.60
2023-02-02T06:52:36.829Z,13.33
2023-02-02T06:55:04.421Z,19.57
2023-02-02T06:57:31.792Z,20.23
2023-02-02T06:59:59.246Z,17.13
2023-02-02T07:02:28.055Z,26.10
2023-02-02T07:04:55.531Z,16.40
2023-02-02T07:07:22.955Z,17.00
2023-02-02T07:09:58.269Z,18.40
2023-02-02T07:12:26.829Z,18.73
2023-02-02T07:14:54.309Z,20.93
2023-02-02T07:17:21.801Z,23.13
2023-02-02T07:19:50.604Z,18.00
2023-02-02T07:22:18.020Z,24.80
2023-02-02T07:24:45.464Z,28.57
2023-02-02T07:27:12.940Z,17.60
2023-02-02T07:29:40.324Z,23.23
2023-02-02T07:32:07.899Z,17.00
2023-02-02T07:34:38.463Z,13.53
2023-02-02T07:37:07.347Z,18.43
2023-02-02T07:39:34.757Z,22.23
2023-02-02T07:42:02.796Z,18.30
2023-02-02T07:44:30.330Z,18.77
2023-02-02T07:46:57.749Z,14.80
2023-02-02T07:49:25.209Z,23.90
2023-02-02T07:51:52.614Z,13.83
2023-02-02T07:54:21.460Z,17.30
2023-02-02T07:56:48.849Z,18.53
2023-02-02T07:59:16.269Z,23.50
2023-02-02T08:01:43.849Z,17.63
2023-02-02T08:04:11.265Z,19.40
2023-02-02T08:06:39.467Z,14.83
2023-02-02T08:09:08.667Z,24.73
2023-02-02T08:11:38.380Z,16.33
2023-02-02T08:14:06.890Z,17.60
2023-02-02T08:16:34.813Z,16.23
2023-02-02T08:19:02.371Z,16.47
2023-02-02T08:21:29.757Z,12.67
2023-02-02T08:23:57.471Z,15.13
2023-02-02T08:26:26.302Z,14.83
2023-02-02T08:28:56.111Z,21.47
2023-02-02T08:31:24.918Z,14.20
2023-02-02T08:33:53.925Z,24.77
2023-02-02T08:36:22.393Z,22.33
2023-02-02T08:38:50.070Z,16.53
2023-02-02T08:41:18.238Z,17.80
2023-02-02T08:43:45.868Z,17.83
2023-02-02T08:46:16.835Z,16.00
2023-02-02T08:48:44.912Z,15.90
2023-02-02T08:51:12.934Z,23.87
2023-02-02T08:53:40.352Z,23.27
2023-02-02T08:56:08.611Z,16.20
2023-02-02T08:58:36.193Z,20.40
2023-02-02T09:01:08.318Z,21.30
2023-02-02T09:03:40.031Z,19.10
2023-02-02T09:06:08.324Z,19.50
2023-02-02T09:08:36.263Z,17.43
2023-02-02T09:11:04.427Z,21.70
2023-02-02T09:13:31.927Z,18.30
2023-02-02T09:16:00.281Z,19.73
2023-02-02T09:18:27.779Z,18.57
2023-02-02T09:21:00.021Z,18.47
2023-02-02T09:23:27.445Z,19.10
2023-02-02T09:25:54.908Z,21.40
2023-02-02T09:28:22.341Z,20.37
2023-02-02T09:30:49.971Z,22.60
2023-02-02T09:33:17.388Z,16.17
2023-02-02T09:35:44.838Z,18.93
2023-02-02T09:38:13.579Z,20.10
2023-02-02T09:40:41.376Z,20.07
2023-02-02T09:43:18.373Z,20.27
2023-02-02T09:45:48.850Z,26.30
2023-02-02T09:48:21.880Z,17.10
2023-02-02T09:50:51.692Z,26.27
2023-02-02T09:53:23.614Z,21.77
2023-02-02T09:55:53.314Z,21.60
2023-02-02T09:58:23.109Z,18.33
2023-02-02T10:00:54.116Z,18.40
2023-02-02T10:03:24.436Z,24.00
2023-02-02T10:05:54.784Z,20.93
2023-02-02T10:08:34.754Z,22.80
2023-02-02T10:11:04.551Z,21.23
2023-02-02T10:13:34.163Z,19.50
2023-02-02T10:16:05.397Z,14.87
2023-02-02T10:18:37.852Z,19.20
2023-02-02T10:21:07.822Z,15.50
2023-02-02T10:23:37.361Z,15.47
2023-02-02T10:26:06.656Z,19.87
2023-02-02T10:28:40.139Z,11.83
2023-02-02T10:31:12.282Z,15.17
2023-02-02T10:33:40.259Z,25.10
2023-02-02T10:36:12.650Z,10.73
2023-02-02T10:38:46.554Z,18.10
2023-02-02T10:41:18.396Z,17.23
2023-02-02T10:43:54.441Z,13.87
2023-02-02T10:46:23.943Z,16.57
2023-02-02T10:48:52.745Z,18.43
2023-02-02T10:51:24.226Z,12.10
2023-02-02T10:53:53.748Z,17.67
2023-02-02T10:56:23.534Z,13.87
2023-02-02T10:58:53.152Z,14.57
2023-02-02T11:01:22.877Z,15.40
2023-02-02T11:04:10.472Z,19.57
2023-02-02T11:06:52.248Z,17.30
2023-02-02T11:09:23.320Z,17.83
2023-02-02T11:11:52.831Z,15.73
2023-02-02T11:14:25.197Z,25.23
2023-02-02T11:17:01.034Z,22.83
2023-02-02T11:19:29.781Z,17.20
2023-02-02T11:21:57.976Z,16.70
2023-02-02T11:24:28.676Z,16.30
2023-02-02T11:26:57.457Z,16.57
2023-02-02T11:29:27.844Z,15.90
2023-02-02T11:31:55.275Z,21.30
2023-02-02T11:34:23.867Z,19.87
2023-02-02T11:37:02.002Z,16.03
2023-02-02T11:39:30.968Z,12.77
2023-02-02T11:42:02.598Z,14.17
2023-02-02T11:44:32.355Z,13.87
2023-02-02T11:47:00.357Z,14.63
2023-02-02T11:49:28.249Z,14.30
2023-02-02T11:51:59.982Z,14.47
2023-02-02T11:54:30.068Z,14.00
2023-02-02T11:57:00.479Z,14.93
2023-02-02T11:59:30.209Z,20.90
2023-02-02T12:02:23.319Z,14.53
2023-02-02T12:04:51.824Z,19.20
2023-02-02T12:07:20.215Z,21.10
2023-02-02T12:09:47.680Z,16.03
2023-02-02T12:12:24.069Z,13.07
2023-02-02T12:14:59.430Z,14.93
2023-02-02T12:17:35.255Z,19.13
2023-02-02T12:20:17.405Z,15.10
2023-02-02T12:23:08.277Z,14.43
2023-02-02T12:25:45.758Z,16.23
2023-02-02T12:28:20.553Z,12.67
2023-02-02T12:30:51.981Z,19.13
2023-02-02T12:33:24.272Z,12.40
2023-02-02T12:35:59.417Z,17.10
2023-02-02T12:38:32.270Z,11.30
2023-02-02T12:41:10.600Z,13.13
2023-02-02T12:43:41.302Z,15.13
2023-02-02T12:46:17.343Z,13.10
2023-02-02T12:48:51.419Z,14.97
2023-02-02T12:51:23.101Z,16.63
2023-02-02T12:54:32.929Z,9.13
2023-02-02T12:56:55.445Z,14.10
2023-02-02T12:59:29.584Z,12.93
2023-02-02T13:02:02.930Z,15.23
2023-02-02T13:04:37.885Z,12.77
2023-02-02T13:07:21.829Z,13.13
2023-02-02T13:09:53.023Z,14.47
2023-02-02T13:12:23.548Z,12.33
2023-02-02T13:14:54.719Z,14.67
2023-02-02T13:17:26.243Z,14.10
2023-02-02T13:19:54.697Z,13.20
2023-02-02T13:22:25.559Z,16.57
2023-02-02T13:24:54.930Z,14.77
2023-02-02T13:27:22.828Z,14.33
2023-02-02T13:29:53.879Z,11.40
2023-02-02T13:32:25.854Z,9.60
2023-02-02T13:34:55.488Z,12.10
2023-02-02T13:37:26.153Z,9.93
2023-02-02T13:39:57.154Z,14.13
2023-02-02T13:42:28.942Z,9.80
2023-02-02T13:45:02.739Z,11.10
2023-02-02T13:47:35.574Z,10.30
2023-02-02T13:50:05.669Z,10.67
2023-02-02T13:52:45.574Z,11.23
2023-02-02T13:55:31.967Z,9.60
2023-02-02T13:58:14.245Z,10.93
2023-02-02T14:00:47.549Z,10.60
2023-02-02T14:03:39.709Z,10.80
2023-02-02T14:06:08.825Z,9.63
2023-02-02T14:08:36.905Z,11.37
2023-02-02T14:11:06.087Z,11.03
2023-02-02T14:13:55.729Z,11.13
2023-02-02T14:16:25.480Z,7.50
2023-02-02T14:18:54.297Z,8.37
2023-02-02T14:21:36.595Z,9.47
2023-02-02T14:24:05.095Z,11.73
2023-02-02T14:26:50.560Z,7.97
2023-02-02T14:29:46.907Z,6.73
2023-02-02T14:32:34.411Z,8.57
2023-02-02T14:35:24.750Z,7.77
2023-02-02T14:37:57.988Z,9.27
2023-02-02T14:40:33.227Z,11.03
2023-02-02T14:43:25.105Z,6.90
2023-02-02T14:46:07.453Z,7.23
2023-02-02T14:48:36.426Z,5.63
2023-02-02T14:51:05.729Z,6.57
2023-02-02T14:53:34.471Z,11.10
2023-02-02T14:56:03.953Z,10.00
2023-02-02T14:58:32.329Z,8.67
2023-02-02T15:01:03.599Z,6.83
2023-02-02T15:03:36.959Z,8.53
2023-02-02T15:06:08.602Z,9.20
2023-02-02T15:08:36.075Z,9.47
2023-02-02T15:11:22.086Z,5.50
2023-02-02T15:13:51.577Z,6.53
2023-02-02T15:16:23.258Z,7.83
2023-02-02T15:18:57.551Z,6.90
2023-02-02T15:21:25.529Z,7.90
2023-02-02T15:23:53.054Z,6.27
2023-02-02T15:26:24.173Z,8.83
2023-02-02T15:28:54.295Z,9.47
2023-02-02T15:31:26.823Z,7.83
2023-02-02T15:33:57.473Z,6.40
2023-02-02T15:36:26.820Z,10.73
2023-02-02T15:38:55.786Z,7.93
2023-02-02T15:41:24.679Z,8.20
2023-02-02T15:43:53.183Z,5.70
2023-02-02T15:46:24.384Z,9.00
2023-02-02T15:49:12.592Z,5.97
2023-02-02T15:51:45.501Z,7.10
2023-02-02T15:54:22.771Z,9.40
2023-02-02T15:56:50.302Z,4.27
2023-02-02T15:59:19.881Z,8.97
2023-02-02T16:01:48.690Z,8.63
2023-02-02T16:04:18.267Z,8.70
2023-02-02T16:06:47.605Z,7.17
2023-02-02T16:09:20.402Z,6.40
2023-02-02T16:11:48.758Z,11.97
2023-02-02T16:14:17.692Z,8.60
2023-02-02T16:16:47.327Z,7.43
2023-02-02T16:19:16.322Z,9.67
2023-02-02T16:21:46.194Z,8.67
2023-02-02T16:24:16.596Z,6.17
2023-02-02T16:26:44.134Z,7.00
2023-02-02T16:29:16.946Z,6.43
2023-02-02T16:31:45.053Z,5.50
2023-02-02T16:34:16.074Z,7.10
2023-02-02T16:36:43.521Z,5.10
2023-02-02T16:39:17.804Z,6.10
2023-02-02T16:41:49.110Z,9.40
2023-02-02T16:44:31.656Z,7.43
2023-02-02T16:46:59.573Z,5.67
2023-02-02T16:49:27.518Z,6.50
2023-02-02T16:52:12.571Z,3.87
2023-02-02T16:54:43.797Z,5.60
2023-02-02T16:57:16.295Z,8.00
2023-02-02T16:59:47.969Z,5.90
2023-02-02T17:02:25.340Z,11.63
2023-02-02T17:04:55.091Z,2.60
2023-02-02T17:07:22.931Z,5.93
2023-02-02T17:09:51.688Z,5.83
2023-02-02T17:12:35.175Z,5.57
2023-02-02T17:15:05.645Z,6.27
2023-02-02T17:17:33.144Z,7.80
2023-02-02T17:20:00.565Z,4.40
2023-02-02T17:22:28.564Z,9.70
2023-02-02T17:24:57.318Z,7.53
2023-02-02T17:27:27.145Z,7.37
2023-02-02T17:29:54.922Z,6.47
2023-02-02T17:32:23.679Z,6.60
2023-02-02T17:34:51.112Z,9.67
2023-02-02T17:37:18.571Z,8.37
2023-02-02T17:39:46.021Z,5.10
2023-02-02T17:42:21.151Z,7.80
2023-02-02T17:44:48.521Z,8.77
2023-02-02T17:47:15.942Z,7.07
2023-02-02T17:49:43.361Z,12.40
2023-02-02T17:52:10.866Z,6.47
2023-02-02T17:54:38.196Z,10.47
2023-02-02T17:57:05.616Z,4.90
2023-02-02T17:59:34.425Z,7.07
2023-02-02T18:02:02.079Z,5.30
2023-02-02T18:04:29.540Z,9.40
2023-02-02T18:06:56.891Z,9.93
2023-02-02T18:09:24.298Z,10.67
2023-02-02T18:11:52.011Z,5.07
2023-02-02T18:14:19.453Z,7.60
2023-02-02T18:16:48.176Z,13.97
2023-02-02T18:19:15.580Z,8.30
2023-02-02T18:21:42.945Z,6.80
2023-02-02T18:24:15.008Z,10.07
2023-02-02T18:26:42.476Z,8.50
2023-02-02T18:29:09.965Z,6.03
2023-02-02T18:31:37.549Z,11.13
2023-02-02T18:34:06.421Z,12.37
2023-02-02T18:36:34.732Z,14.57
2023-02-02T18:39:02.206Z,10.40
2023-02-02T18:41:29.671Z,10.63
2023-02-02T18:43:57.022Z,10.20
2023-02-02T18:46:24.480Z,12.97
2023-02-02T18:48:51.900Z,9.47
2023-02-02T18:51:22.215Z,14.00
2023-02-02T18:53:49.673Z,16.33
2023-02-02T18:56:17.324Z,9.57
2023-02-02T18:58:44.990Z,10.30
2023-02-02T19:01:13.829Z,9.67
2023-02-02T19:03:41.326Z,12.60
2023-02-02T19:06:27.378Z,13.03
2023-02-02T19:08:56.175Z,11.97
2023-02-02T19:11:24.476Z,11.90
2023-02-02T19:13:52.024Z,14.00
2023-02-02T19:16:23.773Z,13.87
2023-02-02T19:18:51.230Z,11.10
2023-02-02T19:21:18.650Z,9.87
2023-02-02T19:23:46.637Z,14.90
2023-02-02T19:26:24.528Z,14.97
2023-02-02T19:28:52.416Z,16.80
2023-02-02T19:31:20.116Z,13.33
2023-02-02T19:33:48.759Z,14.20
2023-02-02T19:36:16.844Z,10.97
2023-02-02T19:38:44.299Z,15.00
2023-02-02T19:41:15.105Z,15.27
2023-02-02T19:43:47.606Z,15.70
2023-02-02T19:46:16.557Z,13.23
2023-02-02T19:48:43.993Z,14.60
2023-02-02T19:51:42.722Z,14.57
2023-02-02T19:54:27.026Z,25.20
2023-02-02T19:56:56.467Z,14.73
2023-02-02T19:59:26.296Z,13.97
2023-02-02T20:01:55.207Z,13.53
2023-02-02T20:04:23.393Z,13.17
2023-02-02T20:06:59.127Z,11.40
2023-02-02T20:09:30.777Z,16.30
2023-02-02T20:11:58.251Z,13.77
2023-02-02T20:14:30.059Z,14.33
2023-02-02T20:17:00.879Z,11.27
2023-02-02T20:19:29.891Z,14.03
2023-02-02T20:21:57.832Z,10.83
2023-02-02T20:24:26.253Z,12.63
2023-02-02T20:26:56.731Z,11.20
2023-02-02T20:29:25.578Z,11.60
2023-02-02T20:31:55.820Z,16.30
2023-02-02T20:34:26.009Z,13.03
2023-02-02T20:36:53.914Z,12.17
2023-02-02T20:39:29.351Z,10.47
2023-02-02T20:41:58.630Z,15.10
2023-02-02T20:44:26.210Z,10.03
2023-02-02T20:46:55.009Z,13.13
2023-02-02T20:49:25.558Z,13.67
2023-02-02T20:51:53.296Z,12.37
2023-02-02T20:54:20.853Z,11.97
2023-02-02T20:56:48.516Z,18.20
2023-02-02T20:59:16.066Z,15.77
2023-02-02T21:01:43.791Z,13.87
2023-02-02T21:04:12.627Z,11.67
2023-02-02T21:06:41.114Z,16.73
2023-02-02T21:09:09.232Z,11.23
2023-02-02T21:11:36.984Z,13.00
2023-02-02T21:14:05.474Z,14.60
2023-02-02T21:16:33.308Z,18.20
2023-02-02T21:19:00.866Z,15.23
2023-02-02T21:21:29.755Z,12.47
2023-02-02T21:23:57.288Z,14.07
2023-02-02T21:26:27.226Z,15.20
2023-02-02T21:28:54.907Z,13.27
2023-02-02T21:31:22.520Z,13.37
2023-02-02T21:33:50.627Z,14.03
2023-02-02T21:36:30.153Z,11.10
2023-02-02T21:39:01.145Z,12.43
2023-02-02T21:41:30.395Z,9.33
2023-02-02T21:43:58.089Z,12.67
2023-02-02T21:46:28.796Z,11.37
2023-02-02T21:48:56.388Z,12.57
2023-02-02T21:51:25.203Z,13.63
2023-02-02T21:53:54.131Z,12.80
2023-02-02T21:56:26.678Z,10.83
2023-02-02T21:58:54.309Z,13.53
2023-02-02T22:01:22.687Z,15.70
2023-02-02T22:03:50.984Z,13.50
2023-02-02T22:06:26.124Z,11.10
2023-02-02T22:08:57.015Z,12.53
2023-02-02T22:11:29.404Z,11.43
2023-02-02T22:14:00.179Z,14.73
2023-02-02T22:16:27.669Z,12.53
2023-02-02T22:18:55.143Z,14.30
2023-02-02T22:21:22.660Z,15.10
2023-02-02T22:23:50.062Z,11.67
2023-02-02T22:26:23.700Z,10.83
2023-02-02T22:28:51.139Z,16.63
2023-02-02T22:31:18.662Z,14.20
2023-02-02T22:33:46.180Z,15.77
2023-02-02T22:36:13.634Z,17.67
2023-02-02T22:38:41.511Z,12.30
2023-02-02T22:41:09.295Z,12.10
2023-02-02T22:43:38.155Z,15.73
2023-02-02T22:46:05.948Z,12.57
2023-02-02T22:48:33.439Z,12.20
2023-02-02T22:51:00.825Z,12.30
2023-02-02T22:53:28.338Z,15.23
2023-02-02T22:55:57.784Z,12.70
2023-02-02T22:58:25.827Z,16.07
2023-02-02T23:00:54.694Z,10.80
2023-02-02T23:03:22.328Z,10.87
2023-02-02T23:05:49.696Z,13.90
2023-02-02T23:08:17.061Z,10.90
2023-02-02T23:10:44.556Z,11.93
2023-02-02T23:13:12.019Z,12.63
2023-02-02T23:15:39.527Z,11.10
2023-02-02T23:18:08.349Z,13.73
2023-02-02T23:20:35.787Z,9.03
2023-02-02T23:23:03.242Z,14.70
2023-02-02T23:25:30.677Z,11.10
2023-02-02T23:27:58.172Z,9.47
2023-02-02T23:30:25.991Z,13.03
2023-02-02T23:32:53.784Z,7.80
2023-02-02T23:35:22.534Z,13.53
2023-02-02T23:37:49.992Z,13.60
2023-02-02T23:40:17.525Z,10.00
2023-02-02T23:42:44.978Z,11.23
2023-02-02T23:45:13.188Z,8.37
2023-02-02T23:47:41.642Z,13.97
2023-02-02T23:50:09.969Z,12.57
2023-02-02T23:52:39.671Z,7.47
2023-02-02T23:55:08.199Z,10.70
2023-02-02T23:57:36.721Z,15.57
